Latest Coastal Weather Observations for Ballina

IDN60701

Issued at 3:11 pm EST Thursday 25 April 2024 (issued every 10 minutes, with the page automatically refreshed every 10 minutes)

About coastal observations | Map of coastal stations | Coastal observations for NSW | Marine services | Other Formats
Station Details ID: 058198 Name: BALLINA AIRPORT AWS Lat: -28.84 Lon: 153.56 Height: 1.3 m
Data from the previous 72 hours. | See also: Recent months at Ballina
Date/Time
EST
Wind Sea
Height
m
Swell Vis
km
Cloud Weather Temp
°C
Press
MSL
hPa
Rain since
9am
mm
Dir  Spd
kts
Gust
kts
Height
m
Period
s
Dir
25/03:00pm S 12 17 - - - - 10 Cloudy - 23.1 1015.5 0.0
25/02:30pm S 12 16 - - - - 10 Partly cloudy - 22.5 1015.7 0.0
25/02:00pm S 13 19 - - - - 10 Partly cloudy - 23.0 1015.6 0.0
25/01:30pm S 14 21 - - - - 10 Partly cloudy - 23.0 1015.6 0.0
25/01:00pm S 16 24 - - - - 10 Partly cloudy - 22.4 1015.9 0.0
25/12:30pm SSW 15 23 - - - - 10 Partly cloudy - 23.1 1016.2 0.0
25/12:00pm S 18 26 - - - - 10 Mostly cloudy - 22.7 1016.4 0.0
25/11:42am S 16 26 - - - - 10 Partly cloudy - 23.1 1016.6 0.0
25/11:30am SSW 17 25 - - - - 10 Partly cloudy - 23.4 1016.8 0.0
25/11:00am SSW 15 26 - - - - 10 Partly cloudy - 23.0 1017.0 0.0
25/10:51am SSW 16 26 - - - - 10 Partly cloudy - 22.6 1017.1 0.0
25/10:30am SSW 12 18 - - - - 10 Partly cloudy - 23.5 1017.1 0.0
25/10:00am SW 11 17 - - - - 10 Partly cloudy - 22.5 1017.3 0.0
25/09:30am SW 10 15 - - - - 10 Partly cloudy - 22.2 1017.2 0.0
25/09:00am WSW 8 12 - - - - 10 - - 20.9 1017.2 0.0
25/08:30am WSW 7 9 - - - - 10 Partly cloudy - 18.4 1017.3 0.0
25/08:00am W 7 10 - - - - 10 Partly cloudy - 18.8 1017.0 0.0
25/07:30am SW 5 7 - - - - 10 Partly cloudy - 16.6 1016.9 0.0
25/07:00am NE 3 3 - - - - 10 Partly cloudy - 14.2 1016.3 0.0
25/06:30am ENE 1 3 - - - - 10 - - 13.9 1016.0 0.0
25/06:00am CALM 0 0 - - - - 10 - - 14.1 1015.6 0.0
25/05:46am CALM 0 0 - - - - 9 - - 13.9 1015.6 0.0
25/05:30am CALM 0 0 - - - - 2 - - 14.0 1015.5 0.0
25/05:25am CALM 0 0 - - - - 4 - - 14.1 1015.4 0.0
25/05:00am CALM 0 0 - - - - 10 - - 14.5 1015.2 0.0
25/04:30am CALM 0 0 - - - - 10 Partly cloudy - 14.6 1015.3 0.0
25/04:00am CALM 0 4 - - - - 10 Partly cloudy - 14.6 1015.0 0.0
25/03:34am CALM 0 0 - - - - 10 - - 14.3 1015.0 0.0
25/03:30am CALM 0 0 - - - - 10 - - 14.2 1015.1 0.0
25/03:11am CALM 0 0 - - - - 4 - - 14.3 1015.0 0.0
25/03:09am CALM 0 0 - - - - 10 - - 14.5 1014.9 0.0
25/03:00am CALM 0 0 - - - - 6 - - 14.4 1015.1 0.0
25/02:30am CALM 0 0 - - - - 10 - - 14.5 1015.3 0.0
25/02:17am CALM 0 0 - - - - 4 - - 14.7 1015.3 0.0
25/02:09am CALM 0 0 - - - - 10 - - 14.9 1015.5 0.0
25/02:00am CALM 0 0 - - - - 10 - - 14.9 1015.6 0.0
25/01:35am CALM 0 0 - - - - 5 Partly cloudy - 15.3 1016.3 0.0
25/01:30am CALM 0 0 - - - - 10 Partly cloudy - 15.6 1016.3 0.0
25/01:00am SE 3 4 - - - - 10 - - 15.3 1016.2 0.0
25/12:30am CALM 0 0 - - - - 10 - - 16.4 1016.2 0.0
25/12:00am CALM 0 0 - - - - 10 - - 16.8 1016.5 0.0
 
Date/Time
EST
Wind Sea
Height
m
Swell Vis
km
Cloud Weather Temp
°C
Press
MSL
hPa
Rain since
9am
mm
Dir  Spd
kts
Gust
kts
Height
m
Period
s
Dir
24/11:30pm WSW 1 3 - - - - 10 Partly cloudy - 17.0 1017.0 0.0
24/11:00pm CALM 0 0 - - - - 10 - - 16.8 1016.9 0.0
24/10:30pm CALM 0 0 - - - - 10 Partly cloudy - 16.7 1017.3 0.0
24/10:00pm CALM 0 0 - - - - 10 - - 16.4 1017.6 0.0
24/09:30pm CALM 0 0 - - - - 10 Partly cloudy - 17.1 1017.7 0.0
24/09:00pm CALM 0 0 - - - - 10 Partly cloudy - 17.3 1018.0 0.0
24/08:30pm CALM 0 0 - - - - 10 - - 17.3 1018.1 0.0
24/08:00pm CALM 0 0 - - - - 10 - - 17.9 1018.0 0.0
24/07:30pm CALM 0 0 - - - - 10 - - 18.1 1017.9 0.0
24/07:00pm WSW 3 4 - - - - 10 - - 18.5 1017.8 0.0
24/06:30pm WSW 5 6 - - - - 10 - - 19.3 1017.8 0.0
24/06:00pm N 4 4 - - - - 10 - - 19.5 1017.3 0.0
24/05:30pm CALM 0 0 - - - - 10 - - 20.2 1017.0 0.0
24/05:00pm NE 4 5 - - - - 10 - - 21.5 1016.9 0.0
24/04:30pm NE 5 7 - - - - 10 - - 22.0 1016.8 0.0
24/04:00pm ENE 6 7 - - - - 10 - - 22.4 1016.8 0.0
24/03:30pm ESE 6 8 - - - - 10 Partly cloudy - 23.6 1016.8 0.0
24/03:00pm SE 6 9 - - - - 10 Mostly cloudy - 23.2 1016.9 0.0
24/02:30pm ESE 6 7 - - - - 10 Cloudy - 23.6 1017.1 0.0
24/02:00pm ESE 6 7 - - - - 10 Cloudy - 24.1 1017.2 0.0
24/01:30pm ESE 5 7 - - - - 10 Cloudy - 23.7 1017.3 0.0
24/01:00pm ESE 6 8 - - - - 10 Cloudy - 24.3 1017.5 0.0
24/12:30pm ESE 5 7 - - - - 10 Cloudy - 24.0 1017.8 0.0
24/12:00pm ESE 6 8 - - - - 10 Partly cloudy - 24.1 1018.3 0.0
24/11:30am SE 5 7 - - - - 10 - - 23.4 1018.8 0.0
24/11:00am S 4 9 - - - - 10 Cloudy - 22.8 1019.3 0.0
24/10:30am SSW 5 8 - - - - 10 Cloudy - 22.6 1020.0 0.0
24/10:00am WSW 6 9 - - - - 10 Partly cloudy - 22.6 1020.0 0.0
24/09:30am WSW 7 9 - - - - 10 Partly cloudy - 21.3 1020.3 0.0
24/09:00am WNW 6 9 - - - - 10 Mostly cloudy - 20.6 1020.4 2.4
24/08:30am W 7 9 - - - - 10 Partly cloudy - 19.7 1020.4 2.4
24/08:00am W 8 11 - - - - 10 Partly cloudy - 19.0 1020.4 2.4
24/07:30am WNW 7 9 - - - - 10 Partly cloudy - 18.8 1020.1 2.4
24/07:00am W 5 7 - - - - 10 Partly cloudy - 17.7 1019.5 2.4
24/06:30am WSW 9 12 - - - - 10 Partly cloudy - 17.3 1019.6 2.4
24/06:00am W 9 11 - - - - 10 Cloudy Recent precip. 17.3 1019.3 2.4
24/05:43am WNW 6 8 - - - - 1 Cloudy - 17.2 1019.3 2.2
24/05:42am WNW 6 8 - - - - 0.9 Cloudy - 17.2 1019.3 2.2
24/05:30am WNW 4 5 - - - - 1 Partly cloudy - 17.0 1019.5 2.2
24/05:00am W 6 7 - - - - 1 Partly cloudy - 17.0 1019.4 2.2
24/04:50am SW 5 8 - - - - 5 Partly cloudy - 17.2 1019.6 2.2
24/04:30am SSE 4 5 - - - - 10 Cloudy - 17.4 1019.6 2.2
24/04:00am WNW 4 6 - - - - 10 Cloudy - 17.7 1019.5 2.2
24/03:30am W 8 11 - - - - 10 Cloudy - 17.5 1019.6 2.2
24/03:00am WNW 7 10 - - - - 9 Cloudy Drizzle 17.6 1019.9 2.2
24/02:30am NNW 5 6 - - - - 10 Cloudy - 18.0 1020.2 2.2
24/02:00am WNW 6 8 - - - - 10 Partly cloudy - 18.0 1020.3 2.2
24/01:30am SW 4 6 - - - - 10 Partly cloudy - 18.0 1020.7 2.0
24/01:00am WNW 7 8 - - - - 10 Partly cloudy - 18.0 1021.0 2.0
24/12:55am WNW 7 8 - - - - 10 Partly cloudy - 18.0 1021.1 2.0
24/12:31am E 4 6 - - - - 5 Partly cloudy - 18.0 1021.2 1.0
24/12:30am E 4 6 - - - - 6 Partly cloudy - 18.0 1021.2 1.0
24/12:00am W 7 8 - - - - 10 Cloudy Showers 17.6 1020.9 0.6
 
Date/Time
EST
Wind Sea
Height
m
Swell Vis
km
Cloud Weather Temp
°C
Press
MSL
hPa
Rain since
9am
mm
Dir  Spd
kts
Gust
kts
Height
m
Period
s
Dir
23/11:30pm E 1 4 - - - - 10 Partly cloudy - 17.6 1021.3 0.6
23/11:00pm E 1 3 - - - - 10 Partly cloudy - 16.9 1021.4 0.6
23/10:30pm CALM 0 0 - - - - 10 Partly cloudy - 16.9 1021.3 0.6
23/10:00pm CALM 0 0 - - - - 10 Partly cloudy - 16.8 1021.5 0.6
23/09:30pm CALM 0 0 - - - - 10 Partly cloudy - 16.9 1021.6 0.6
23/09:00pm SSW 3 3 - - - - 10 Mostly clear - 17.0 1021.6 0.6
23/08:30pm SSW 3 3 - - - - 10 Partly cloudy - 17.5 1021.5 0.6
23/08:00pm SSW 4 5 - - - - 10 - - 17.6 1021.5 0.6
23/07:30pm SSW 4 5 - - - - 10 Partly cloudy - 17.8 1021.5 0.6
23/07:00pm SSW 4 5 - - - - 10 Partly cloudy - 18.0 1021.4 0.6
23/06:30pm CALM 0 0 - - - - 10 - - 18.8 1021.3 0.6
23/06:00pm ESE 2 4 - - - - 10 Cloudy - 20.2 1021.1 0.6
23/05:30pm SE 4 5 - - - - 10 - - 20.6 1020.9 0.6
23/05:00pm ESE 5 6 - - - - 10 Partly cloudy - 22.2 1020.8 0.6
23/04:30pm ESE 7 10 - - - - 10 Partly cloudy - 23.5 1020.9 0.6
23/04:00pm ESE 7 9 - - - - 10 - - 23.8 1020.9 0.6
23/03:30pm ESE 8 11 - - - - 10 - - 24.1 1021.2 0.6
23/03:00pm ESE 9 12 - - - - 10 - - 24.4 1021.5 0.6
23/02:30pm ESE 11 16 - - - - 10 - - 24.3 1021.6 0.6
23/02:00pm ESE 9 13 - - - - 10 Partly cloudy - 24.6 1021.7 0.6
23/01:30pm SE 9 13 - - - - 10 Partly cloudy - 24.7 1022.1 0.6
23/01:00pm ESE 9 13 - - - - 10 - - 24.9 1022.3 0.6
23/12:30pm ESE 10 15 - - - - 10 - - 24.8 1022.6 0.6
23/12:00pm ESE 10 14 - - - - 10 Mostly clear - 24.5 1023.1 0.2
23/11:30am SE 6 12 - - - - 10 Partly cloudy - 24.4 1023.5 0.2
23/11:00am SW 5 7 - - - - 10 Partly cloudy - 22.6 1023.8 0.2
23/10:30am SSW 4 6 - - - - 10 Partly cloudy - 22.6 1024.1 0.2
23/10:00am CALM 0 3 - - - - 10 Partly cloudy - 21.9 1024.4 0.2
23/09:30am SW 1 4 - - - - 10 Partly cloudy - 21.4 1024.6 0.0
23/09:00am WSW 5 7 - - - - 10 Partly cloudy - 20.4 1024.5 17.2
23/08:30am W 4 6 - - - - 10 Partly cloudy - 19.3 1024.4 17.2
23/08:00am W 3 5 - - - - 10 Partly cloudy - 17.7 1024.4 17.2
23/07:30am W 3 4 - - - - 10 Partly cloudy - 16.8 1024.0 17.2
23/07:00am W 4 5 - - - - 10 Partly cloudy - 16.7 1023.8 17.2
23/06:30am W 6 7 - - - - 10 Partly cloudy - 16.5 1023.4 17.2
23/06:00am W 5 6 - - - - 10 Mostly cloudy - 16.6 1023.2 17.2
23/05:30am W 6 8 - - - - 10 Partly cloudy - 16.7 1023.0 17.2
23/05:00am WNW 3 5 - - - - 10 Partly cloudy - 16.7 1022.8 17.2
23/04:30am W 4 5 - - - - 10 Partly cloudy - 17.0 1022.6 17.2
23/04:00am WSW 5 6 - - - - 10 Partly cloudy - 17.3 1022.4 17.2
23/03:30am WSW 4 5 - - - - 10 Partly cloudy - 17.4 1022.4 17.2
23/03:00am WSW 3 5 - - - - 10 Cloudy Rain 17.4 1022.5 17.2
23/02:30am W 5 6 - - - - 10 Partly cloudy - 17.5 1022.6 17.2
23/02:00am WSW 7 8 - - - - 10 Partly cloudy - 17.7 1022.9 17.2
23/01:30am W 7 8 - - - - 10 Partly cloudy - 17.7 1023.1 17.0
23/01:03am WSW 7 8 - - - - 10 Partly cloudy - 17.9 1023.3 17.0
23/01:00am WSW 7 9 - - - - 10 Partly cloudy - 17.9 1023.3 17.0
23/12:37am SSW 5 9 - - - - 5 Partly cloudy - 18.0 1023.4 13.4
23/12:30am WSW 5 8 - - - - 10 Partly cloudy - 17.9 1023.5 12.2
23/12:00am W 7 9 - - - - 10 Mostly cloudy - 17.8 1023.6 11.2
 
Date/Time
EST
Wind Sea
Height
m
Swell Vis
km
Cloud Weather Temp
°C
Press
MSL
hPa
Rain since
9am
mm
Dir  Spd
kts
Gust
kts
Height
m
Period
s
Dir
22/11:30pm WSW 7 9 - - - - 10 Partly cloudy - 18.1 1023.6 11.2
22/11:00pm WSW 7 9 - - - - 10 Partly cloudy - 18.2 1023.7 11.2
22/10:30pm SW 7 8 - - - - 10 Partly cloudy - 18.4 1023.9 11.2
22/10:00pm WSW 7 9 - - - - 10 Cloudy - 18.3 1024.1 11.0
22/09:30pm WSW 7 8 - - - - 10 Partly cloudy - 18.5 1024.2 11.0
22/09:12pm SW 4 7 - - - - 10 Partly cloudy - 18.7 1024.3 11.0
22/09:00pm ESE 8 12 - - - - 3 Cloudy Showers 18.5 1024.5 11.0
22/08:52pm WSW 7 12 - - - - 5 Partly cloudy - 18.4 1024.6 10.4
22/08:30pm E 3 6 - - - - 10 Partly cloudy - 18.1 1024.2 7.6
22/08:06pm E 1 4 - - - - 10 Partly cloudy - 18.3 1024.3 7.6
22/08:00pm E 2 4 - - - - 9 Partly cloudy - 18.3 1024.4 7.4
22/07:43pm E 8 12 - - - - 4 Partly cloudy - 18.6 1024.5 5.6
22/07:30pm E 7 14 - - - - 10 Partly cloudy - 19.2 1024.0 1.8
22/07:00pm SSE 10 16 - - - - 10 Partly cloudy - 19.0 1023.8 1.8
22/06:30pm S 8 13 - - - - 10 Partly cloudy - 21.2 1023.4 0.8
22/06:00pm SSE 9 12 - - - - 10 Cloudy - 21.2 1023.3 0.8
22/05:30pm SSE 10 16 - - - - 10 Partly cloudy - 21.1 1023.1 0.8
22/05:00pm SSE 12 16 - - - - 10 Partly cloudy - 21.9 1022.8 0.8
22/04:30pm SSE 13 18 - - - - 10 Partly cloudy - 22.4 1022.5 0.8
22/04:00pm SSE 13 19 - - - - 10 - - 23.1 1022.4 0.8
22/03:30pm SSE 13 18 - - - - 10 Partly cloudy - 23.4 1022.4 0.8

Other formats

Comma delimited format used in spreadsheet applications
http://www.bom.gov.au/fwo/IDN60701/IDN60701.94596.axf

JavaScript Object Notation format (JSON) in row-major order
http://www.bom.gov.au/fwo/IDN60701/IDN60701.94596.json

Data quality

Most of these data are generated automatically and are frequently updated. Quality checks on data are not normally performed. It is possible for incorrect values to appear. Refer to information at About Latest Weather Observations and please check the disclaimer before using these data.